Time;durP1;ratioP1;P1;durP2;ratioP2;P2;SDS_P1;SDS_P2;PMS_P1;PMS_P2;Temp;Humidity;BMP_temperature;BMP_pressure;BME280_temperature;BME280_humidity;BME280_pressure;Samples;Min_cycle;Max_cycle;Signal;HPM_P1;HPM_P2
2023/08/28 00:02:13;;;;;;;16.80;8.60;;;;;;;-141.97;54.37;47169.28;5030989;28;20158;-86
2023/08/28 00:04:38;;;;;;;13.20;8.60;;;;;;;-141.97;54.66;47040.53;5031129;28;20552;-84
2023/08/28 00:07:04;;;;;;;11.37;8.17;;;;;;;-141.97;55.98;47384.53;5031311;28;20548;-84
2023/08/28 00:09:29;;;;;;;13.20;8.43;;;;;;;-141.97;56.61;47496.00;5032568;28;20205;-84
2023/08/28 00:11:55;;;;;;;10.83;8.27;;;;;;;-141.97;56.83;47361.47;5034156;28;20169;-85
2023/08/28 00:14:21;;;;;;;10.57;7.93;;;;;;;-141.97;57.25;47588.28;5031411;28;20174;-84
2023/08/28 00:16:46;;;;;;;11.63;8.07;;;;;;;-141.97;57.31;47355.72;5033017;28;20166;-83
2023/08/28 00:19:12;;;;;;;11.10;8.30;;;;;;;-141.97;57.66;47284.59;5031712;28;20162;-84
2023/08/28 00:21:37;;;;;;;11.43;8.43;;;;;;;-141.97;57.63;47371.09;5030879;28;20205;-85
2023/08/28 00:24:04;;;;;;;12.57;8.70;;;;;;;-141.97;57.65;47540.22;5030799;28;20168;-84
2023/08/28 00:26:29;;;;;;;11.73;8.43;;;;;;;-141.97;57.49;47296.13;5031043;28;20166;-82
2023/08/28 00:28:55;;;;;;;12.27;8.47;;;;;;;-141.97;57.52;47346.09;5029778;28;20196;-84
2023/08/28 00:31:20;;;;;;;12.63;8.57;;;;;;;-141.97;57.79;47182.75;5030598;28;20197;-84
2023/08/28 00:33:46;;;;;;;11.17;8.63;;;;;;;-141.97;57.66;47346.09;5032072;28;20228;-85
2023/08/28 00:36:11;;;;;;;14.80;8.53;;;;;;;-141.97;57.78;47384.53;5034019;28;20209;-84
2023/08/28 00:38:36;;;;;;;13.70;8.73;;;;;;;-141.97;57.78;47357.63;5034165;28;20174;-84
2023/08/28 00:41:03;;;;;;;12.37;8.40;;;;;;;-141.97;57.95;47367.25;5034454;28;20190;-84
2023/08/28 00:43:28;;;;;;;10.57;8.47;;;;;;;-141.97;58.18;47321.13;5034359;28;20264;-85
2023/08/28 00:45:54;;;;;;;10.87;8.33;;;;;;;-141.97;58.18;47384.53;5034359;28;20546;-85
2023/08/28 00:48:21;;;;;;;12.53;8.60;;;;;;;-141.97;58.21;47603.66;5034085;28;20177;-85
2023/08/28 00:50:48;;;;;;;9.93;8.67;;;;;;;-141.97;58.24;47311.50;5035016;28;20279;-85
2023/08/28 00:53:14;;;;;;;10.83;8.70;;;;;;;-141.97;58.42;47349.94;5035693;28;20203;-83
2023/08/28 00:55:40;;;;;;;13.70;9.00;;;;;;;-141.97;58.74;47474.88;5033881;28;20151;-83
2023/08/28 00:58:06;;;;;;;11.60;8.90;;;;;;;-141.97;58.67;47221.19;5033146;28;20170;-83
2023/08/28 01:00:31;;;;;;;15.27;9.37;;;;;;;-141.97;58.88;47334.56;5013371;28;20163;-83
2023/08/28 01:02:57;;;;;;;11.60;8.83;;;;;;;-141.97;58.81;47317.28;5014490;28;20258;-83
2023/08/28 01:05:37;;;;;;;11.83;8.83;;;;;;;-141.97;58.77;47378.78;5014296;28;20182;-84
2023/08/28 01:08:12;;;;;;;14.77;9.10;;;;;;;-141.97;58.82;47338.41;5015134;28;20177;-84
2023/08/28 01:10:44;;;;;;;14.27;8.60;;;;;;;-141.97;58.90;47230.78;5038165;28;20709;-84
2023/08/28 01:13:31;;;;;;;12.17;8.80;;;;;;;-141.97;58.89;47390.31;5017834;28;20181;-84
2023/08/28 01:15:58;;;;;;;12.67;8.93;;;;;;;-141.97;59.57;47422.97;5014991;28;20163;-85
2023/08/28 01:18:24;;;;;;;11.57;9.27;;;;;;;-141.97;59.73;47419.13;5015484;28;20710;-85
2023/08/28 01:20:51;;;;;;;14.03;9.07;;;;;;;-141.97;60.07;47357.63;5020989;28;20178;-84
2023/08/28 01:23:34;;;;;;;13.87;9.47;;;;;;;-141.97;61.08;47386.47;5036750;28;20236;-84
2023/08/28 01:26:00;;;;;;;14.00;9.67;;;;;;;-141.97;60.29;47388.38;5018878;28;20169;-85
2023/08/28 01:28:26;;;;;;;10.93;9.40;;;;;;;-141.97;60.24;47605.56;5014101;28;20527;-83
2023/08/28 01:30:53;;;;;;;14.13;9.10;;;;;;;-141.97;60.67;47342.25;5014607;28;20620;-83
2023/08/28 01:33:19;;;;;;;11.77;9.60;;;;;;;-141.97;61.04;47388.38;5014274;28;20213;-83
2023/08/28 01:35:51;;;;;;;13.47;9.40;;;;;;;-141.97;59.81;47359.56;5014361;28;20171;-83
2023/08/28 01:38:16;;;;;;;13.20;9.70;;;;;;;-141.97;58.44;47382.63;5014040;28;20174;-83
2023/08/28 01:40:54;;;;;;;15.40;9.90;;;;;;;-141.97;58.43;47555.59;5013741;28;20178;-83
2023/08/28 01:43:23;;;;;;;16.73;9.90;;;;;;;-141.97;58.82;47426.81;5012047;28;20650;-83
2023/08/28 01:45:50;;;;;;;14.80;10.03;;;;;;;-141.97;58.82;47390.31;5013158;28;20169;-83
2023/08/28 01:48:16;;;;;;;12.50;9.83;;;;;;;-141.97;58.38;47363.41;5014015;28;20196;-84
2023/08/28 01:50:41;;;;;;;13.30;9.13;;;;;;;-141.97;57.63;47499.84;5014201;28;20275;-83
2023/08/28 01:53:07;;;;;;;11.30;8.97;;;;;;;-141.97;57.34;47434.50;5028940;28;20257;-83
2023/08/28 01:55:44;;;;;;;11.57;8.67;;;;;;;-141.97;57.14;47392.22;5013899;28;20584;-83
2023/08/28 01:58:10;;;;;;;13.00;8.33;;;;;;;-141.97;56.59;47396.06;5013633;28;20178;-83
2023/08/28 02:00:35;;;;;;;11.80;8.10;;;;;;;-141.97;56.04;47411.44;5014378;28;20155;-83
2023/08/28 02:03:01;;;;;;;11.80;8.33;;;;;;;-141.97;56.66;47323.03;5028778;28;20186;-84
2023/08/28 02:05:26;;;;;;;11.47;8.90;;;;;;;-141.97;56.76;47323.03;5013356;28;20277;-84
2023/08/28 02:07:52;;;;;;;11.50;8.40;;;;;;;-141.97;56.64;47461.41;5013548;28;20167;-84
2023/08/28 02:10:17;;;;;;;11.00;8.40;;;;;;;-141.97;56.43;47419.13;5013237;28;20199;-84
2023/08/28 02:12:43;;;;;;;13.23;8.50;;;;;;;-141.97;56.17;47392.22;5013010;28;20524;-84
2023/08/28 02:15:08;;;;;;;11.20;8.70;;;;;;;-141.97;55.90;47422.97;5013830;28;20178;-85
2023/08/28 02:17:34;;;;;;;10.53;8.17;;;;;;;-141.97;56.08;47547.91;5015815;28;20603;-85
2023/08/28 02:19:59;;;;;;;11.00;8.33;;;;;;;-141.97;55.95;47369.16;5014231;28;20159;-84
2023/08/28 02:22:24;;;;;;;18.27;8.47;;;;;;;-141.97;55.93;47253.84;5015005;28;20618;-84
2023/08/28 02:24:50;;;;;;;11.10;8.30;;;;;;;-141.97;55.74;47317.28;5014135;28;20173;-84
2023/08/28 02:27:15;;;;;;;13.77;8.40;;;;;;;-141.97;55.76;47405.69;5012937;28;20205;-83
2023/08/28 02:29:40;;;;;;;15.50;8.57;;;;;;;-141.97;55.64;47299.97;5027036;28;20635;-83
2023/08/28 02:32:06;;;;;;;12.07;8.80;;;;;;;-141.97;55.34;47257.69;5027350;28;20179;-83
2023/08/28 02:34:31;;;;;;;13.40;8.70;;;;;;;-141.97;55.72;47336.50;5011982;28;20281;-84
2023/08/28 02:36:57;;;;;;;14.33;8.63;;;;;;;-141.97;55.84;47176.97;5012202;28;20171;-84
2023/08/28 02:39:23;;;;;;;15.77;8.70;;;;;;;-141.97;56.70;47569.06;5012090;28;20603;-84
2023/08/28 02:41:48;;;;;;;13.90;8.83;;;;;;;-141.97;56.57;47419.13;5012129;28;20222;-84
2023/08/28 02:44:13;;;;;;;14.70;9.00;;;;;;;-141.97;56.50;47594.03;5012391;28;20174;-85
2023/08/28 02:46:39;;;;;;;15.27;8.47;;;;;;;-141.97;57.06;47551.75;5012411;28;20308;-84
2023/08/28 02:49:04;;;;;;;10.40;7.90;;;;;;;-141.97;57.26;47521.00;5027302;28;20194;-85
2023/08/28 02:51:30;;;;;;;11.60;8.57;;;;;;;-141.97;58.05;47382.63;5027364;28;20182;-85
2023/08/28 02:53:55;;;;;;;14.60;8.40;;;;;;;-141.97;58.69;47161.59;5011962;28;20181;-85
2023/08/28 02:56:20;;;;;;;10.53;8.20;;;;;;;-141.97;58.79;47411.44;5026671;28;20197;-85
2023/08/28 02:58:46;;;;;;;12.77;8.40;;;;;;;-141.97;58.85;47407.59;5012327;28;20254;-83
2023/08/28 03:01:11;;;;;;;11.67;8.40;;;;;;;-141.97;58.95;47332.66;5011950;28;20165;-84
2023/08/28 03:03:36;;;;;;;10.17;8.40;;;;;;;-141.97;60.00;47257.69;5011618;28;20186;-84
2023/08/28 03:06:02;;;;;;;11.67;8.07;;;;;;;-141.97;60.00;47632.47;5010613;28;20213;-84
2023/08/28 03:08:30;;;;;;;11.00;8.60;;;;;;;-141.97;59.69;47348.03;5010125;28;20173;-84
2023/08/28 03:10:56;;;;;;;11.23;8.40;;;;;;;-141.97;59.22;47440.28;5012054;28;20209;-83
2023/08/28 03:13:21;;;;;;;11.50;8.30;;;;;;;-141.97;59.22;47547.91;5011606;28;20241;-83
2023/08/28 03:15:46;;;;;;;14.23;8.77;;;;;;;-141.97;59.20;47226.94;5011744;28;20171;-84
2023/08/28 03:18:12;;;;;;;15.70;8.60;;;;;;;-141.97;60.53;47392.22;5011816;28;20166;-84
2023/08/28 03:20:37;;;;;;;11.73;9.30;;;;;;;-141.97;60.66;47388.38;5011464;28;20186;-85
2023/08/28 03:23:03;;;;;;;16.10;9.47;;;;;;;-141.97;62.20;47547.91;5012108;28;20171;-85
2023/08/28 03:25:28;;;;;;;15.60;9.33;;;;;;;-141.97;62.58;47403.75;5014464;28;20626;-85
2023/08/28 03:27:54;;;;;;;14.47;9.40;;;;;;;-141.97;62.51;47438.34;5016096;28;20193;-84
2023/08/28 03:30:19;;;;;;;19.00;9.53;;;;;;;-141.97;62.67;47590.19;5015503;28;20209;-83
2023/08/28 03:32:45;;;;;;;15.93;9.57;;;;;;;-141.97;62.14;47232.72;5012143;28;20493;-84
2023/08/28 03:35:10;;;;;;;16.60;10.13;;;;;;;-141.97;61.83;47542.16;5041471;28;20264;-84
2023/08/28 03:37:36;;;;;;;21.77;11.83;;;;;;;-141.97;61.37;47488.31;5030554;28;20185;-85
2023/08/28 03:40:03;;;;;;;42.30;21.07;;;;;;;-141.97;60.99;47417.22;5030994;28;20312;-84
2023/08/28 03:42:29;;;;;;;12.67;8.93;;;;;;;-141.97;60.77;47176.97;5033042;28;20221;-84
2023/08/28 03:44:54;;;;;;;12.93;8.97;;;;;;;-141.97;61.07;47569.06;5031305;28;20193;-85
2023/08/28 03:47:20;;;;;;;14.63;9.70;;;;;;;-141.97;61.39;47449.88;5033829;28;20232;-84
2023/08/28 03:49:45;;;;;;;11.63;9.60;;;;;;;-141.97;61.69;47497.94;5035364;28;20251;-84
2023/08/28 03:52:10;;;;;;;13.10;9.93;;;;;;;-141.97;63.21;47553.69;5050243;28;20216;-83
2023/08/28 03:54:36;;;;;;;15.63;10.10;;;;;;;-141.97;64.00;47563.28;5038882;28;20176;-84
2023/08/28 03:57:01;;;;;;;13.30;9.80;;;;;;;-141.97;63.92;47521.00;5030500;28;20174;-83
2023/08/28 03:59:27;;;;;;;14.53;10.40;;;;;;;-141.97;64.50;47251.94;5031301;28;20178;-84
2023/08/28 04:01:53;;;;;;;17.30;10.37;;;;;;;-141.97;65.57;47292.28;5033776;28;20174;-84
2023/08/28 04:04:19;;;;;;;17.73;10.83;;;;;;;-141.97;66.51;47357.63;5034522;28;20197;-83
2023/08/28 04:06:44;;;;;;;17.20;11.17;;;;;;;-141.97;66.46;47613.25;5031305;28;20170;-86
2023/08/28 04:09:10;;;;;;;19.40;11.50;;;;;;;-141.97;66.78;47363.41;5033814;28;20200;-84
2023/08/28 04:11:35;;;;;;;14.73;11.33;;;;;;;-141.97;67.02;47576.75;5035070;28;20232;-84
2023/08/28 04:14:01;;;;;;;21.60;11.50;;;;;;;-141.97;67.21;47503.69;5033689;28;20320;-85
2023/08/28 04:16:26;;;;;;;19.10;11.37;;;;;;;-141.97;67.23;47595.97;5034965;28;20257;-84
2023/08/28 04:18:52;;;;;;;18.50;11.47;;;;;;;-141.97;67.53;47599.81;5035303;28;20200;-85
2023/08/28 04:21:17;;;;;;;16.33;11.67;;;;;;;-141.97;68.06;47609.41;5035449;28;20177;-86
2023/08/28 04:23:42;;;;;;;19.20;11.87;;;;;;;-141.97;68.03;47292.28;5043799;28;20246;-86
2023/08/28 04:26:08;;;;;;;15.30;11.03;;;;;;;-141.97;68.13;47453.72;5056594;28;20170;-85
2023/08/28 04:28:33;;;;;;;15.83;10.90;;;;;;;-141.97;67.18;47440.28;5054024;28;20178;-85
2023/08/28 04:30:59;;;;;;;16.23;11.10;;;;;;;-141.97;67.30;47213.50;5029778;28;20178;-85
2023/08/28 04:33:24;;;;;;;16.87;11.27;;;;;;;-141.97;66.80;47444.13;5028648;28;20182;-85
2023/08/28 04:35:50;;;;;;;16.60;11.40;;;;;;;-141.97;66.83;47336.50;5023557;28;20162;-85
2023/08/28 04:38:15;;;;;;;15.23;11.40;;;;;;;-141.97;66.50;47422.97;5024555;28;20170;-85
2023/08/28 04:40:40;;;;;;;16.07;10.57;;;;;;;-141.97;65.89;47542.16;5023649;28;20289;-86
2023/08/28 04:43:06;;;;;;;16.23;11.00;;;;;;;-141.97;65.24;47451.81;5024941;28;20245;-84
2023/08/28 04:45:31;;;;;;;15.17;11.63;;;;;;;-141.97;64.54;47451.81;5012956;28;20492;-84
2023/08/28 04:47:56;;;;;;;17.50;11.63;;;;;;;-141.97;64.01;47265.38;5014475;28;20185;-83
2023/08/28 04:50:22;;;;;;;19.93;12.00;;;;;;;-141.97;63.47;47449.88;5014280;28;20777;-84
2023/08/28 04:52:47;;;;;;;19.53;12.00;;;;;;;-141.97;63.34;47469.09;5014135;28;20163;-83
2023/08/28 04:55:13;;;;;;;19.37;12.10;;;;;;;-141.97;63.02;47346.09;5013943;28;20175;-84
2023/08/28 04:57:38;;;;;;;17.47;11.70;;;;;;;-141.97;62.73;47442.19;5014261;28;20257;-84
2023/08/28 05:00:04;;;;;;;20.53;12.43;;;;;;;-141.97;62.52;47436.44;5013943;28;20167;-84
2023/08/28 05:02:30;;;;;;;18.43;12.20;;;;;;;-141.97;62.17;47246.16;5013893;28;20230;-84
2023/08/28 05:04:55;;;;;;;17.83;11.60;;;;;;;-141.97;61.86;47405.69;5014296;28;20216;-84
2023/08/28 05:07:21;;;;;;;16.93;12.50;;;;;;;-141.97;61.22;47415.28;5014183;28;20159;-84
2023/08/28 05:09:47;;;;;;;23.53;11.70;;;;;;;-141.97;60.83;47430.66;5013969;28;20273;-84
2023/08/28 05:12:12;;;;;;;23.30;11.73;;;;;;;-141.97;60.29;47407.59;5013959;28;20624;-85
2023/08/28 05:14:37;;;;;;;19.80;11.10;;;;;;;-141.97;60.15;47403.75;5013844;28;20206;-85
2023/08/28 05:17:05;;;;;;;31.20;11.47;;;;;;;-141.97;60.07;47442.19;5013783;28;20177;-85
2023/08/28 05:19:30;;;;;;;22.93;10.70;;;;;;;-141.97;60.13;47419.13;5013389;28;20163;-84
2023/08/28 05:21:56;;;;;;;21.57;10.60;;;;;;;-141.97;59.99;47340.34;5013821;28;20170;-83
2023/08/28 05:24:21;;;;;;;17.43;10.40;;;;;;;-141.97;59.48;47424.91;5013284;28;20198;-84
2023/08/28 05:26:46;;;;;;;18.70;10.10;;;;;;;-141.97;59.27;47432.59;5013348;28;20244;-83
2023/08/28 05:29:12;;;;;;;17.83;10.10;;;;;;;-141.97;58.93;47446.03;5014508;28;20282;-84
2023/08/28 05:31:37;;;;;;;18.77;10.37;;;;;;;-141.97;58.86;47430.66;5013639;28;20189;-86
2023/08/28 05:34:03;;;;;;;21.43;10.80;;;;;;;-141.97;58.36;47426.81;5013475;28;20194;-83
2023/08/28 05:36:28;;;;;;;19.30;10.50;;;;;;;-141.97;58.27;47388.38;5013359;28;20166;-75
2023/08/28 05:38:53;;;;;;;19.23;10.73;;;;;;;-141.97;57.89;47413.38;5012901;28;20163;-75
2023/08/28 05:41:19;;;;;;;16.10;10.47;;;;;;;-141.97;57.57;47434.50;5012679;28;20171;-75
2023/08/28 05:43:45;;;;;;;15.97;9.90;;;;;;;-141.97;57.47;47417.22;5013099;28;20166;-75
2023/08/28 05:46:10;;;;;;;16.73;9.47;;;;;;;-141.97;57.26;47403.75;5012745;28;20171;-76
2023/08/28 05:48:36;;;;;;;14.17;9.70;;;;;;;-141.97;56.91;47421.06;5012903;28;20487;-75
2023/08/28 05:51:01;;;;;;;14.27;9.73;;;;;;;-141.97;56.82;47428.75;5012822;28;20178;-76
2023/08/28 05:53:29;;;;;;;13.70;9.90;;;;;;;-141.97;56.74;47401.84;5012964;28;20167;-75
2023/08/28 05:55:54;;;;;;;13.20;9.30;;;;;;;-141.97;56.33;47409.53;5012867;28;20185;-77
2023/08/28 05:58:20;;;;;;;14.87;10.00;;;;;;;-141.97;56.77;47422.97;5012869;28;20230;-77
2023/08/28 06:00:46;;;;;;;13.07;10.60;;;;;;;-141.97;56.17;47409.53;5012500;28;20167;-77
2023/08/28 06:03:12;;;;;;;15.53;11.13;;;;;;;-141.97;55.19;47361.47;5012067;28;20163;-77
2023/08/28 06:05:38;;;;;;;16.47;11.20;;;;;;;-141.97;54.91;47403.75;5012306;28;20177;-76
2023/08/28 06:08:04;;;;;;;17.00;10.03;;;;;;;-141.97;54.35;47357.63;5010547;28;20171;-75
2023/08/28 06:10:29;;;;;;;17.73;9.70;;;;;;;-141.97;54.62;47411.44;5011975;28;20317;-75
2023/08/28 06:12:54;;;;;;;14.57;10.60;;;;;;;-141.97;54.25;47396.06;5011710;28;20284;-75
2023/08/28 06:15:20;;;;;;;17.83;10.70;;;;;;;-141.97;53.85;47382.63;5011700;28;20179;-75
2023/08/28 06:17:53;;;;;;;13.63;10.07;;;;;;;-141.97;53.92;47419.13;5011921;28;20230;-76
2023/08/28 06:20:19;;;;;;;10.87;9.37;;;;;;;-141.97;54.57;47388.38;5011964;28;20165;-76
2023/08/28 06:22:44;;;;;;;18.50;10.80;;;;;;;-141.97;53.71;47396.06;5011923;28;20166;-76
2023/08/28 06:25:10;;;;;;;14.07;9.93;;;;;;;-141.97;52.92;47401.84;5011765;28;20197;-76
2023/08/28 06:27:35;;;;;;;16.17;9.73;;;;;;;-141.97;53.77;47396.06;5024425;28;20523;-76
2023/08/28 06:30:04;;;;;;;17.13;9.77;;;;;;;-141.97;53.39;47376.84;5037951;28;20225;-77
2023/08/28 06:32:29;;;;;;;16.33;9.53;;;;;;;-141.97;52.86;47344.19;5032522;28;20197;-77
2023/08/28 06:34:55;;;;;;;15.20;9.63;;;;;;;-141.97;51.91;47396.06;5032658;28;20182;-76
2023/08/28 06:37:20;;;;;;;23.27;10.00;;;;;;;-141.97;51.67;47349.94;5031718;28;20200;-76
2023/08/28 06:39:45;;;;;;;13.63;9.33;;;;;;;-141.97;51.53;47357.63;5030322;28;20181;-76
2023/08/28 06:42:11;;;;;;;12.23;9.10;;;;;;;-141.97;51.16;47369.16;5028684;28;20236;-76
2023/08/28 06:44:37;;;;;;;15.03;9.73;;;;;;;-141.97;50.82;47392.22;5030458;28;20364;-76
2023/08/28 06:47:02;;;;;;;14.97;9.70;;;;;;;-141.97;50.72;47384.53;5030652;28;20180;-76
2023/08/28 06:49:28;;;;;;;16.07;10.13;;;;;;;-141.97;50.17;47382.63;5030521;28;20194;-75
2023/08/28 06:51:53;;;;;;;13.13;10.00;;;;;;;-141.97;50.03;47376.84;5010810;28;20198;-76
2023/08/28 06:54:18;;;;;;;11.27;9.37;;;;;;;-141.97;49.59;47384.53;5029745;28;20197;-76
2023/08/28 06:56:44;;;;;;;13.32;9.52;;;;;;;-141.97;48.91;47348.03;5030553;28;20162;-77
2023/08/28 06:59:09;;;;;;;16.02;9.93;;;;;;;-141.97;48.96;47373.00;5032514;28;20320;-77
2023/08/28 07:01:35;;;;;;;13.52;9.90;;;;;;;-141.97;48.13;47438.34;5050043;28;20677;-77
2023/08/28 07:04:00;;;;;;;13.10;10.02;;;;;;;-141.97;47.46;47384.53;5050715;28;20205;-77
2023/08/28 07:06:25;;;;;;;12.73;10.15;;;;;;;-141.97;47.65;47380.69;5049722;28;20593;-77
2023/08/28 07:08:51;;;;;;;13.77;10.52;;;;;;;-141.97;47.34;47359.56;5049544;28;20195;-78
2023/08/28 07:11:16;;;;;;;16.63;11.00;;;;;;;-141.97;47.28;47380.69;5049987;28;20173;-75
2023/08/28 07:13:42;;;;;;;16.17;10.95;;;;;;;-141.97;46.88;47378.78;5048706;28;20198;-76
2023/08/28 07:16:07;;;;;;;13.35;11.32;;;;;;;-141.97;46.39;47369.16;5049424;28;20165;-75
2023/08/28 07:18:32;;;;;;;12.85;10.88;;;;;;;-141.97;45.81;47357.63;5049636;28;20230;-75
2023/08/28 07:20:58;;;;;;;16.15;10.52;;;;;;;-141.97;45.28;47357.63;5048939;28;20168;-75
2023/08/28 07:23:25;;;;;;;17.92;10.95;;;;;;;-141.97;45.73;47344.19;5031888;28;20204;-75
2023/08/28 07:25:50;;;;;;;15.55;10.88;;;;;;;-141.97;45.60;47369.16;5029930;28;20215;-76
2023/08/28 07:28:16;;;;;;;15.32;11.65;;;;;;;-141.97;45.54;47346.09;5029048;28;20168;-75
2023/08/28 07:30:42;;;;;;;13.73;10.32;;;;;;;-141.97;45.67;47371.09;5028892;28;20615;-75
2023/08/28 07:33:08;;;;;;;14.13;10.38;;;;;;;-141.97;45.03;47323.03;5029544;28;20207;-75
2023/08/28 07:35:36;;;;;;;15.57;10.23;;;;;;;-141.97;44.54;47349.94;5029638;28;20173;-75
2023/08/28 07:38:03;;;;;;;15.25;10.10;;;;;;;-141.97;43.95;47253.84;5029942;28;21050;-75
2023/08/28 07:40:29;;;;;;;15.32;9.82;;;;;;;-141.97;43.67;47346.09;5029406;28;20253;-76
2023/08/28 07:42:54;;;;;;;15.88;9.65;;;;;;;-141.97;43.29;47323.03;5031897;28;20223;-77
2023/08/28 07:45:20;;;;;;;15.35;9.73;;;;;;;-141.97;42.18;47332.66;5032624;28;20258;-76
2023/08/28 07:47:45;;;;;;;12.48;9.32;;;;;;;-141.97;42.22;47315.34;5033494;28;20231;-75
2023/08/28 07:50:10;;;;;;;13.57;9.13;;;;;;;-141.97;42.46;47321.13;5021651;28;20289;-75
2023/08/28 07:52:36;;;;;;;12.20;9.27;;;;;;;-141.97;41.18;47284.59;5033612;28;20260;-76
2023/08/28 07:55:01;;;;;;;12.38;9.65;;;;;;;-141.97;40.49;47292.28;5033554;28;20161;-75
2023/08/28 07:57:27;;;;;;;13.98;9.10;;;;;;;-141.97;40.77;47275.00;5033139;28;20177;-76
2023/08/28 07:59:52;;;;;;;18.15;9.82;;;;;;;-141.97;41.12;47334.56;5033352;28;20262;-76
2023/08/28 08:02:17;;;;;;;14.73;9.70;;;;;;;-141.97;40.09;47305.75;5021774;28;20598;-75
2023/08/28 08:04:43;;;;;;;13.50;10.20;;;;;;;-141.97;39.74;47303.81;5033018;28;20167;-76
2023/08/28 08:07:08;;;;;;;13.32;9.60;;;;;;;-141.97;39.61;47299.97;5033365;28;20234;-75
2023/08/28 08:09:33;;;;;;;14.88;9.77;;;;;;;-141.97;38.95;47299.97;5033387;28;20195;-77
2023/08/28 08:11:59;;;;;;;17.75;10.13;;;;;;;-141.97;39.44;47332.66;5031507;28;20267;-76
2023/08/28 08:14:24;;;;;;;18.30;10.35;;;;;;;-141.97;39.15;47299.97;5033389;28;20162;-76
2023/08/28 08:16:50;;;;;;;13.15;9.50;;;;;;;-141.97;39.26;47296.13;5033034;28;20158;-75
2023/08/28 08:19:15;;;;;;;13.82;9.32;;;;;;;-141.97;38.86;47303.81;5032721;28;20209;-76
2023/08/28 08:21:40;;;;;;;15.65;10.02;;;;;;;-141.97;38.86;47311.50;5032956;28;20174;-76
2023/08/28 08:24:06;;;;;;;15.70;10.38;;;;;;;-141.97;39.08;47388.38;5033364;28;20158;-76
2023/08/28 08:26:33;;;;;;;13.48;10.10;;;;;;;-141.97;38.38;47299.97;5032706;28;20226;-76
2023/08/28 08:28:59;;;;;;;16.98;10.82;;;;;;;-141.97;38.12;47315.34;5032894;28;20544;-77
2023/08/28 08:31:25;;;;;;;13.15;9.30;;;;;;;-141.97;37.80;47303.81;5032844;28;20165;-77
2023/08/28 08:33:50;;;;;;;13.18;9.27;;;;;;;-141.97;37.74;47273.06;5031697;28;20724;-76
2023/08/28 08:36:16;;;;;;;12.45;9.40;;;;;;;-141.97;37.49;47447.97;5032522;28;20267;-76
2023/08/28 08:38:42;;;;;;;16.17;9.10;;;;;;;-141.97;37.35;47303.81;5031774;28;20215;-75
2023/08/28 08:41:08;;;;;;;11.77;9.02;;;;;;;-141.97;37.29;47275.00;5032753;28;20189;-75
2023/08/28 08:43:34;;;;;;;13.77;9.00;;;;;;;-141.97;36.37;47284.59;5032684;28;20247;-76
2023/08/28 08:46:07;;;;;;;10.95;8.68;;;;;;;-141.97;35.70;47269.22;5031198;28;20169;-76
2023/08/28 08:48:36;;;;;;;11.13;8.50;;;;;;;-141.97;35.63;47288.44;5030775;28;20568;-78
2023/08/28 08:51:04;;;;;;;12.95;8.68;;;;;;;-141.97;35.29;47238.47;5023602;28;20232;-75
2023/08/28 08:53:52;;;;;;;14.27;8.68;;;;;;;-141.97;34.90;47276.91;5032032;28;20169;-77
2023/08/28 08:56:21;;;;;;;12.70;8.55;;;;;;;-141.97;35.08;47244.25;5031387;28;20185;-75
2023/08/28 08:58:49;;;;;;;13.10;8.52;;;;;;;-141.97;34.86;47257.69;5032583;28;20245;-76
2023/08/28 09:01:16;;;;;;;11.25;8.65;;;;;;;-141.97;34.78;47269.22;5031085;28;20181;-76
2023/08/28 09:03:43;;;;;;;11.98;8.38;;;;;;;-141.97;34.27;47317.28;5020468;28;20314;-76
2023/08/28 09:06:10;;;;;;;10.77;8.05;;;;;;;-141.97;33.92;47250.00;5030267;28;20261;-75
2023/08/28 09:08:38;;;;;;;13.70;8.23;;;;;;;-141.97;34.12;47217.34;5032696;28;20232;-77
2023/08/28 09:11:08;;;;;;;12.13;8.60;;;;;;;-141.97;34.19;47349.94;5032621;28;20219;-77
2023/08/28 09:13:38;;;;;;;19.45;8.70;;;;;;;-141.97;34.43;47234.63;5031910;28;20177;-76
2023/08/28 09:16:04;;;;;;;17.55;9.02;;;;;;;-141.97;34.16;47255.78;5032591;28;20197;-76
2023/08/28 09:18:30;;;;;;;20.80;9.27;;;;;;;-141.97;34.60;47284.59;5032707;28;20231;-76
2023/08/28 09:21:24;;;;;;;16.95;9.30;;;;;;;-141.97;33.86;47228.88;5030477;28;20212;-75
2023/08/28 09:23:50;;;;;;;12.23;8.63;;;;;;;-141.97;33.96;47211.56;4991443;28;20673;-76
2023/08/28 09:26:19;;;;;;;15.48;8.98;;;;;;;-141.97;33.76;47248.09;4989962;28;20196;-75
2023/08/28 09:29:02;;;;;;;16.92;8.77;;;;;;;-141.97;33.69;47236.56;4990692;28;20258;-77
2023/08/28 09:31:31;;;;;;;13.02;9.02;;;;;;;-141.97;34.07;47190.44;4990332;28;20926;-76
2023/08/28 09:33:57;;;;;;;11.95;8.45;;;;;;;-141.97;33.79;47234.63;4989321;28;20195;-76
2023/08/28 09:36:22;;;;;;;12.52;8.20;;;;;;;-141.97;33.17;47230.78;4990292;28;20282;-77
2023/08/28 09:38:48;;;;;;;10.30;8.15;;;;;;;-141.97;33.49;47242.31;4990715;28;20604;-76
2023/08/28 09:41:13;;;;;;;16.88;8.68;;;;;;;-141.97;33.44;47230.78;4988796;28;20219;-76
2023/08/28 09:43:39;;;;;;;13.50;8.93;;;;;;;-141.97;33.37;47257.69;4989873;28;20274;-75
2023/08/28 09:46:05;;;;;;;13.68;8.68;;;;;;;-141.97;33.71;47253.84;4989628;28;20250;-75
2023/08/28 09:48:35;;;;;;;11.15;8.95;;;;;;;-141.97;33.63;47217.34;4989004;28;20318;-75
2023/08/28 09:51:06;;;;;;;13.32;8.45;;;;;;;-141.97;34.31;47265.38;4980163;28;21181;-77
2023/08/28 09:53:32;;;;;;;14.13;8.80;;;;;;;-141.97;33.70;47226.94;4989192;28;20191;-75
2023/08/28 09:55:58;;;;;;;13.80;9.35;;;;;;;-141.97;33.73;47207.72;4989143;28;20186;-76
2023/08/28 09:58:28;;;;;;;12.13;9.57;;;;;;;-141.97;33.58;47215.41;4989881;28;20178;-76
2023/08/28 10:00:55;;;;;;;11.95;8.90;;;;;;;-141.97;33.22;47219.25;5008580;28;20190;-79
2023/08/28 10:03:22;;;;;;;13.00;9.80;;;;;;;-141.97;33.08;47217.34;5031105;28;20655;-76
2023/08/28 10:05:49;;;;;;;13.30;9.35;;;;;;;-141.97;33.26;47226.94;5017041;28;20186;-76
2023/08/28 10:08:15;;;;;;;17.67;9.40;;;;;;;-141.97;33.75;47278.84;5011706;28;20165;-78
2023/08/28 10:10:47;;;;;;;12.75;9.00;;;;;;;-141.97;33.56;47223.09;5011283;28;20187;-79
2023/08/28 10:13:19;;;;;;;10.38;8.82;;;;;;;-141.97;33.28;47215.41;5031028;28;20175;-79
2023/08/28 10:16:03;;;;;;;10.40;8.10;;;;;;;-141.97;32.68;47159.69;5031253;28;20166;-79
2023/08/28 10:18:34;;;;;;;14.43;10.32;;;;;;;-141.97;32.99;47223.09;5030594;28;20610;-78
2023/08/28 10:21:00;;;;;;;9.65;8.25;;;;;;;-141.97;32.78;47353.78;5030971;28;20623;-80
2023/08/28 10:23:27;;;;;;;11.40;8.25;;;;;;;-141.97;32.97;47228.88;5030729;28;20168;-81
2023/08/28 10:25:54;;;;;;;11.35;8.48;;;;;;;-141.97;33.27;47447.97;5018700;28;20233;-78
2023/08/28 10:28:21;;;;;;;14.63;8.43;;;;;;;-141.97;33.54;47221.19;5030934;28;20293;-78
2023/08/28 10:30:48;;;;;;;11.52;8.30;;;;;;;-141.97;33.32;47226.94;5030886;28;20218;-78
2023/08/28 10:33:15;;;;;;;14.07;8.35;;;;;;;-141.97;33.05;47250.00;5029880;28;20178;-79
2023/08/28 10:35:44;;;;;;;12.52;8.15;;;;;;;-141.97;33.00;47261.53;5030111;28;20174;-82
2023/08/28 10:38:10;;;;;;;10.93;8.20;;;;;;;-141.97;33.13;47234.63;5030929;28;20236;-81
2023/08/28 10:40:36;;;;;;;10.93;9.50;;;;;;;-141.97;32.96;47230.78;5030108;28;20545;-80
2023/08/28 10:43:04;;;;;;;8.73;7.50;;;;;;;-141.97;32.63;47242.31;5030287;28;20244;-79
2023/08/28 10:45:29;;;;;;;11.82;8.30;;;;;;;-141.97;32.48;47225.03;5032847;28;20235;-80
2023/08/28 10:47:55;;;;;;;12.40;8.43;;;;;;;-141.97;32.20;47161.59;5033864;28;20177;-79
2023/08/28 10:50:20;;;;;;;7.95;7.10;;;;;;;-141.97;32.11;47221.19;5034002;28;20186;-79
2023/08/28 10:52:46;;;;;;;10.52;7.00;;;;;;;-141.97;32.19;47161.59;5033101;28;20166;-80
2023/08/28 10:55:17;;;;;;;13.75;7.45;;;;;;;-141.97;32.42;47223.09;5031859;28;20182;-80
2023/08/28 10:57:49;;;;;;;10.13;8.18;;;;;;;-141.97;32.48;47200.03;5031342;28;20249;-81
2023/08/28 11:00:17;;;;;;;20.02;12.57;;;;;;;-141.97;32.63;47209.66;5030882;28;20212;-80
2023/08/28 11:03:07;;;;;;;9.35;8.35;;;;;;;-141.97;32.08;47242.31;5030435;28;20185;-80
2023/08/28 11:05:33;;;;;;;12.80;7.20;;;;;;;-141.97;31.99;47223.09;5028695;28;20185;-81